Aviation Digital Data Service (ADDS)

Output produced by TAFs form (0751 UTC 23 April 2018)
found at http://aviationweather.gov/adds/tafs/
 
METAR text: RJOB 230700Z 12009KT 100V160 9999 -RA FEW030 BKN100 20/12 Q1015
Conditions at: RJOB (OKAYAMA AIRPORT , JP) observed 0700 UTC 23 April 2018
Temperature: 20.0°C (68°F)
Dewpoint: 12.0°C (54°F) [RH = 60%]
Pressure (altimeter): 29.97 inches Hg (1015.0 mb)
Winds: from the ESE (120 degrees) at 10 MPH (9 knots; 4.7 m/s)
Visibility: 6 or more miles (10+ km)
Ceiling: 10000 feet AGL
Clouds: few clouds at 3000 feet AGL
broken clouds at 10000 feet AGL
Weather: -RA  (light rain)

Forecast for: RJOB (OKAYAMA AIRPORT , JP)
Text: TAF RJOB 230510Z 2306/2412 22005KT 9999 FEW025 SCT040
Forecast period: 0600 UTC 23 April 2018 to 1200 UTC 24 April 2018
Forecast type: FROM: standard forecast or significant change
Winds: from the SW (220 degrees) at 6 MPH (5 knots; 2.6 m/s)
Visibility: 6 or more miles (10+ km)
Clouds: few clouds at 2500 feet AGL
scattered clouds at 4000 feet AGL
Weather: no significant weather forecast for this period
Forecast for: RJOB (OKAYAMA AIRPORT , JP)
Text: TAF RJOB 230510Z 2306/2412 22005KT 9999 FEW025 SCT040
Forecast period: 0600 UTC 23 April 2018 to 1200 UTC 24 April 2018
Forecast type: FROM: standard forecast or significant change
Winds: from the SW (220 degrees) at 6 MPH (5 knots; 2.6 m/s)
Visibility: 6 or more miles (10+ km)
Clouds: few clouds at 2500 feet AGL
scattered clouds at 4000 feet AGL
Weather: no significant weather forecast for this period
Forecast for: RJOB (OKAYAMA AIRPORT , JP)
Text: TAF RJOB 230510Z 2306/2412 22005KT 9999 FEW025 SCT040
Forecast period: 0600 to 1300 UTC 23 April 2018
Forecast type: BECOMING: Conditions expected to become as follows by 0800 UTC 23 April 2018
Winds: from the ENE (60 degrees) at 5 MPH (4 knots; 2.1 m/s)
Visibility: 6 or more miles (10+ km)
Clouds: few clouds at 2500 feet AGL
scattered clouds at 4000 feet AGL
Weather: no significant weather forecast for this period
Forecast for: RJOB (OKAYAMA AIRPORT , JP)
Text: TAF RJOB 230510Z 2306/2412 22005KT 9999 FEW025 SCT040
Forecast period: 0600 to 1300 UTC 23 April 2018
Forecast type: BECOMING: Conditions expected to become as follows by 0800 UTC 23 April 2018
Winds: from the ENE (60 degrees) at 5 MPH (4 knots; 2.1 m/s)
Visibility: 6 or more miles (10+ km)
Clouds: few clouds at 2500 feet AGL
scattered clouds at 4000 feet AGL
Weather: no significant weather forecast for this period
Forecast for: RJOB (OKAYAMA AIRPORT , JP)
Text: TAF RJOB 230510Z 2306/2412 22005KT 9999 FEW025 SCT040
Forecast period: 1000 to 1300 UTC 23 April 2018
Forecast type: TEMPORARY: The following changes expected for less than half the time period
Visibility: 2.49 miles (4.01 km)
Weather: -RA BR  (light rain, mist)
Forecast for: RJOB (OKAYAMA AIRPORT , JP)
Text: TAF RJOB 230510Z 2306/2412 22005KT 9999 FEW025 SCT040
Forecast period: 1000 to 1300 UTC 23 April 2018
Forecast type: TEMPORARY: The following changes expected for less than half the time period
Visibility: 2.49 miles (4.01 km)
Weather: -RA BR  (light rain, mist)
Forecast for: RJOB (OKAYAMA AIRPORT , JP)
Text: TAF RJOB 230510Z 2306/2412 22005KT 9999 FEW025 SCT040
Forecast period: 1300 UTC 23 April 2018 to 1200 UTC 24 April 2018
Forecast type: BECOMING: Conditions expected to become as follows by 1500 UTC 23 April 2018
Winds: from the ENE (60 degrees) at 5 MPH (4 knots; 2.1 m/s)
Visibility: 1.86 miles (2.99 km)
Ceiling: 800 feet AGL
Clouds: few clouds at 300 feet AGL
broken clouds at 800 feet AGL
broken clouds at 2500 feet AGL
Weather: -SHRA BR  (light rain showers, mist)
Forecast for: RJOB (OKAYAMA AIRPORT , JP)
Text: TAF RJOB 230510Z 2306/2412 22005KT 9999 FEW025 SCT040
Forecast period: 1300 UTC 23 April 2018 to 1200 UTC 24 April 2018
Forecast type: BECOMING: Conditions expected to become as follows by 1500 UTC 23 April 2018
Winds: from the ENE (60 degrees) at 5 MPH (4 knots; 2.1 m/s)
Visibility: 1.86 miles (2.99 km)
Ceiling: 800 feet AGL
Clouds: few clouds at 300 feet AGL
broken clouds at 800 feet AGL
broken clouds at 2500 feet AGL
Weather: -SHRA BR  (light rain showers, mist)
Forecast for: RJOB (OKAYAMA AIRPORT , JP)
Text: TAF RJOB 230510Z 2306/2412 22005KT 9999 FEW025 SCT040
Forecast period: 1500 UTC 23 April 2018 to 0000 UTC 24 April 2018
Forecast type: TEMPORARY: The following changes expected for less than half the time period
Visibility: 0.43 miles (0.69 km)
Ceiling: 300 feet AGL
Clouds: few clouds at 0 feet AGL
scattered clouds at 100 feet AGL
broken clouds at 300 feet AGL
Weather: -SHRA FG  (light rain showers, fog)
Forecast for: RJOB (OKAYAMA AIRPORT , JP)
Text: TAF RJOB 230510Z 2306/2412 22005KT 9999 FEW025 SCT040
Forecast period: 1500 UTC 23 April 2018 to 0000 UTC 24 April 2018
Forecast type: TEMPORARY: The following changes expected for less than half the time period
Visibility: 0.43 miles (0.69 km)
Ceiling: 300 feet AGL
Clouds: few clouds at 0 feet AGL
scattered clouds at 100 feet AGL
broken clouds at 300 feet AGL
Weather: -SHRA FG  (light rain showers, fog)
Forecast for: RJOB (OKAYAMA AIRPORT , JP)
Text: TAF RJOB 230510Z 2306/2412 22005KT 9999 FEW025 SCT040
Forecast period: 0000 to 0900 UTC 24 April 2018
Forecast type: TEMPORARY: The following changes expected for less than half the time period
Visibility: 0.75 miles (1.21 km)
Ceiling: 300 feet AGL
Clouds: few clouds at 0 feet AGL
scattered clouds at 100 feet AGL
broken clouds at 300 feet AGL
Weather: SHRA BR BCFG  (rain showers, mist, patches of fog)
Forecast for: RJOB (OKAYAMA AIRPORT , JP)
Text: TAF RJOB 230510Z 2306/2412 22005KT 9999 FEW025 SCT040
Forecast period: 0000 to 0900 UTC 24 April 2018
Forecast type: TEMPORARY: The following changes expected for less than half the time period
Visibility: 0.75 miles (1.21 km)
Ceiling: 300 feet AGL
Clouds: few clouds at 0 feet AGL
scattered clouds at 100 feet AGL
broken clouds at 300 feet AGL
Weather: SHRA BR BCFG  (rain showers, mist, patches of fog)